Time;durP1;ratioP1;P1;durP2;ratioP2;P2;SDS_P1;SDS_P2;PMS_P1;PMS_P2;Temp;Humidity;BMP_temperature;BMP_pressure;BME280_temperature;BME280_humidity;BME280_pressure;Samples;Min_cycle;Max_cycle;Signal;HPM_P1;HPM_P2
2022/12/14 00:01:53;;;;;;;4.82;4.30;;;;;;;-5.94;100.00;97500.16;15282068;19;20085;-53
2022/12/14 00:07:18;;;;;;;5.05;4.28;;;;;;;-5.92;100.00;97487.81;15274234;19;20014;-49
2022/12/14 00:12:43;;;;;;;5.00;4.50;;;;;;;-5.90;100.00;97486.81;15283574;19;20472;-52
2022/12/14 00:18:10;;;;;;;4.35;3.95;;;;;;;-5.89;100.00;97472.75;15275604;19;20021;-49
2022/12/14 00:23:41;;;;;;;4.53;3.97;;;;;;;-5.88;100.00;97477.09;15282604;19;20014;-54
2022/12/14 00:29:08;;;;;;;4.32;3.92;;;;;;;-5.87;100.00;97470.03;15278786;19;20098;-51
2022/12/14 00:34:35;;;;;;;4.95;3.92;;;;;;;-5.87;100.00;97464.81;15281063;19;20034;-51
2022/12/14 00:40:00;;;;;;;4.80;4.18;;;;;;;-5.87;100.00;97464.81;15278765;19;20588;-53
2022/12/14 00:45:25;;;;;;;4.30;3.90;;;;;;;-5.89;100.00;97462.28;15290763;19;20924;-51
2022/12/14 00:50:53;;;;;;;5.20;4.70;;;;;;;-5.91;100.00;97458.88;15285064;19;20023;-52
2022/12/14 00:56:24;;;;;;;4.68;4.28;;;;;;;-5.91;100.00;97455.44;15293558;19;20070;-78
2022/12/14 01:01:49;;;;;;;4.72;4.22;;;;;;;-5.93;100.00;97449.41;15303635;19;20492;-79
2022/12/14 01:07:16;;;;;;;5.10;4.20;;;;;;;-5.94;100.00;97443.31;15303151;19;20015;-80
2022/12/14 01:12:41;;;;;;;6.93;4.50;;;;;;;-5.94;100.00;97453.78;15297682;19;20022;-79
2022/12/14 01:18:05;;;;;;;5.68;4.47;;;;;;;-5.98;100.00;97447.03;15303542;19;20119;-80
2022/12/14 01:23:32;;;;;;;4.68;4.10;;;;;;;-5.97;100.00;97440.00;15296885;19;20007;-81
2022/12/14 01:28:59;;;;;;;4.95;4.32;;;;;;;-5.95;100.00;97435.53;15298959;19;20035;-80
2022/12/14 01:34:25;;;;;;;5.25;4.25;;;;;;;-5.97;100.00;97435.63;15302363;19;20387;-78
2022/12/14 01:39:52;;;;;;;5.75;4.40;;;;;;;-5.98;100.00;97426.06;15303088;19;20806;-79
2022/12/14 01:45:20;;;;;;;6.57;3.90;;;;;;;-5.97;100.00;97430.38;15297812;19;20031;-79
2022/12/14 01:50:49;;;;;;;5.60;4.00;;;;;;;-5.96;100.00;97428.59;15296178;19;20016;-79
2022/12/14 01:56:24;;;;;;;4.78;4.10;;;;;;;-5.95;100.00;97425.91;15298404;19;20031;-78
2022/12/14 02:01:49;;;;;;;4.97;4.00;;;;;;;-5.93;100.00;97428.44;15296804;19;20083;-79
2022/12/14 02:07:14;;;;;;;5.03;3.95;;;;;;;-5.93;100.00;97416.16;15300751;19;20115;-78
2022/12/14 02:12:47;;;;;;;6.10;4.03;;;;;;;-5.94;100.00;97396.09;15296690;19;20081;-79
2022/12/14 02:18:15;;;;;;;4.20;3.75;;;;;;;-5.95;100.00;97386.56;15294961;19;20074;-78
2022/12/14 02:23:59;;;;;;;4.43;3.92;;;;;;;-5.97;100.00;97380.56;15291390;19;20018;-78
2022/12/14 02:29:39;;;;;;;4.85;3.65;;;;;;;-5.97;100.00;97377.94;15297299;19;20007;-79
2022/12/14 02:35:13;;;;;;;4.57;3.70;;;;;;;-5.98;100.00;97381.47;15303391;19;20015;-78
2022/12/14 02:40:46;;;;;;;4.55;3.72;;;;;;;-5.98;100.00;97378.84;15299240;19;20021;-80
2022/12/14 02:46:20;;;;;;;4.82;4.18;;;;;;;-5.98;100.00;97368.38;15297768;19;20413;-77
2022/12/14 02:51:59;;;;;;;5.15;4.25;;;;;;;-5.97;100.00;97366.56;15286076;19;20505;-81
2022/12/14 02:57:29;;;;;;;4.53;4.05;;;;;;;-5.97;100.00;97361.34;15288329;19;20006;-80
2022/12/14 03:02:57;;;;;;;4.55;3.65;;;;;;;-5.96;100.00;97366.50;15292805;19;20029;-79
2022/12/14 03:08:23;;;;;;;4.93;4.20;;;;;;;-5.96;100.00;97361.25;15293927;19;20081;-79
2022/12/14 03:13:54;;;;;;;4.20;3.80;;;;;;;-5.94;100.00;97346.25;15292386;19;20460;-81
2022/12/14 03:19:27;;;;;;;4.40;4.00;;;;;;;-5.91;100.00;97343.47;15293977;19;20054;-78
2022/12/14 03:24:57;;;;;;;4.85;4.13;;;;;;;-5.86;100.00;97339.75;15298066;19;20032;-79
2022/12/14 03:30:23;;;;;;;4.68;4.05;;;;;;;-5.83;100.00;97329.13;15294762;19;20024;-79
2022/12/14 03:36:17;;;;;;;4.75;3.88;;;;;;;-5.81;100.00;97316.72;15310232;19;20006;-80
2022/12/14 03:41:49;;;;;;;4.38;3.97;;;;;;;-5.81;100.00;97306.25;15308501;19;20094;-80
2022/12/14 03:47:26;;;;;;;5.18;4.30;;;;;;;-5.81;100.00;97301.84;15326601;19;20006;-78
2022/12/14 03:52:59;;;;;;;4.68;4.18;;;;;;;-5.81;100.00;97301.00;15302039;19;20018;-79
2022/12/14 03:58:43;;;;;;;4.32;3.92;;;;;;;-5.83;100.00;97293.22;15299309;19;20043;-79
2022/12/14 04:04:21;;;;;;;4.72;3.88;;;;;;;-5.87;100.00;97286.44;15298967;19;20026;-79
2022/12/14 04:09:57;;;;;;;4.95;4.45;;;;;;;-5.91;100.00;97275.28;15305664;19;20093;-80
2022/12/14 04:21:09;;;;;;;5.13;4.43;;;;;;;-6.07;100.00;97251.75;15321867;19;20010;-81
2022/12/14 04:26:42;;;;;;;5.05;4.45;;;;;;;-6.16;100.00;97249.66;15321575;19;20035;-81
2022/12/14 04:32:12;;;;;;;5.55;4.72;;;;;;;-6.24;100.00;97250.09;15316871;19;20031;-80
2022/12/14 04:37:40;;;;;;;5.93;4.88;;;;;;;-6.31;100.00;97238.25;15329533;19;20015;-80
2022/12/14 04:43:13;;;;;;;6.30;5.10;;;;;;;-6.40;100.00;97236.13;15323611;19;20010;-79
2022/12/14 04:48:43;;;;;;;6.32;5.57;;;;;;;-6.50;100.00;97226.16;15325228;19;20032;-80
2022/12/14 04:54:14;;;;;;;6.67;5.80;;;;;;;-6.54;100.00;97229.91;14826343;19;10000392;-79
2022/12/14 04:59:42;;;;;;;6.70;5.47;;;;;;;-6.59;100.00;97247.63;15321344;19;20018;-81
2022/12/14 05:06:00;;;;;;;7.93;6.32;;;;;;;-6.62;100.00;97237.31;15329217;19;20044;-80
2022/12/14 05:11:42;;;;;;;6.23;5.63;;;;;;;-6.65;100.00;97211.31;15317133;19;20048;-80
2022/12/14 05:17:15;;;;;;;7.97;6.20;;;;;;;-6.65;100.00;97200.84;15318043;19;20090;-81
2022/12/14 05:22:42;;;;;;;6.85;5.80;;;;;;;-6.64;100.00;97220.81;15311815;19;20054;-81
2022/12/14 05:28:07;;;;;;;7.40;6.53;;;;;;;-6.62;100.00;97205.88;15314796;19;20010;-81
2022/12/14 05:33:34;;;;;;;8.88;6.80;;;;;;;-6.61;100.00;97199.72;15319369;19;20025;-80
2022/12/14 05:39:00;;;;;;;8.85;6.55;;;;;;;-6.59;100.00;97205.72;15317695;19;20015;-81
2022/12/14 05:44:29;;;;;;;8.38;6.90;;;;;;;-6.55;100.00;97195.91;15308926;19;20017;-82
2022/12/14 05:49:58;;;;;;;6.15;5.55;;;;;;;-6.60;100.00;97182.25;15309785;19;20019;-81
2022/12/14 05:55:26;;;;;;;6.55;5.78;;;;;;;-6.68;100.00;97175.63;15309164;19;20011;-81
2022/12/14 06:00:51;;;;;;;8.50;7.07;;;;;;;-6.87;100.00;97183.66;15313844;19;20042;-80
2022/12/14 06:06:18;;;;;;;9.68;8.02;;;;;;;-7.04;100.00;97178.50;15311878;19;20014;-81
2022/12/14 06:11:48;;;;;;;10.48;8.60;;;;;;;-7.09;100.00;97170.91;15308813;19;20074;-81
2022/12/14 06:17:14;;;;;;;9.50;8.00;;;;;;;-7.23;100.00;97165.53;15315978;19;20416;-80
2022/12/14 06:22:42;;;;;;;11.43;8.93;;;;;;;-7.38;100.00;97154.13;15311593;19;20096;-81
2022/12/14 06:28:07;;;;;;;10.40;8.20;;;;;;;-7.56;100.00;97153.31;15328463;19;20027;-82
2022/12/14 06:33:44;;;;;;;9.18;7.72;;;;;;;-7.54;100.00;97144.47;15328426;19;20022;-81
2022/12/14 06:39:14;;;;;;;9.10;7.95;;;;;;;-7.47;100.00;97140.63;15336637;19;20010;-81
2022/12/14 06:44:53;;;;;;;10.25;8.15;;;;;;;-7.36;100.00;97141.81;15316072;19;20074;-81
2022/12/14 06:50:18;;;;;;;11.52;8.55;;;;;;;-7.22;100.00;97135.84;15314275;19;20011;-82
2022/12/14 06:55:47;;;;;;;12.63;9.07;;;;;;;-7.09;100.00;97146.47;15319789;19;20046;-80
2022/12/14 07:01:14;;;;;;;11.52;9.02;;;;;;;-7.03;100.00;97128.66;15346088;19;20018;-81
2022/12/14 07:06:41;;;;;;;10.23;8.20;;;;;;;-6.98;100.00;97131.03;15308171;19;20014;-82
2022/12/14 07:12:09;;;;;;;8.90;7.32;;;;;;;-6.97;100.00;97128.34;15306610;19;20014;-81
2022/12/14 07:17:33;;;;;;;10.32;7.57;;;;;;;-6.98;100.00;97113.56;15307873;19;20021;-81
2022/12/14 07:22:59;;;;;;;9.20;7.93;;;;;;;-7.02;100.00;97109.41;15308933;19;20035;-82
2022/12/14 07:28:26;;;;;;;9.85;8.05;;;;;;;-7.09;100.00;97094.13;15306577;19;20036;-80
2022/12/14 07:33:55;;;;;;;12.40;7.88;;;;;;;-7.12;100.00;97103.00;15303237;19;20011;-81
2022/12/14 07:39:20;;;;;;;10.00;7.60;;;;;;;-7.15;100.00;97098.78;15305478;19;20022;-81
2022/12/14 07:44:48;;;;;;;10.68;8.45;;;;;;;-7.19;100.00;97086.78;15306424;19;20077;-82
2022/12/14 07:50:14;;;;;;;11.73;8.15;;;;;;;-7.15;100.00;97088.31;15298766;19;20018;-83
2022/12/14 07:55:40;;;;;;;12.10;8.88;;;;;;;-7.11;100.00;97086.38;15304928;19;20015;-81
2022/12/14 08:01:19;;;;;;;11.50;8.77;;;;;;;-7.07;100.00;97080.06;15291497;19;20078;-82
2022/12/14 08:06:45;;;;;;;9.80;8.73;;;;;;;-6.99;100.00;97082.22;15301202;19;20015;-83
2022/12/14 08:12:09;;;;;;;9.82;8.43;;;;;;;-6.91;100.00;97069.56;15295752;19;20010;-80
2022/12/14 08:17:36;;;;;;;9.00;7.85;;;;;;;-6.76;100.00;97059.16;15307955;19;20358;-79
2022/12/14 08:23:01;;;;;;;9.98;8.50;;;;;;;-6.59;100.00;97053.78;15303455;19;20417;-81
2022/12/14 08:28:28;;;;;;;10.80;8.50;;;;;;;-6.42;100.00;97049.34;15305548;19;20014;-81
2022/12/14 08:33:58;;;;;;;9.52;8.52;;;;;;;-6.26;100.00;97037.00;15299913;19;20078;-81
2022/12/14 08:39:23;;;;;;;9.48;8.07;;;;;;;-6.17;100.00;97026.94;15296417;19;20010;-83
2022/12/14 08:44:48;;;;;;;8.98;7.95;;;;;;;-6.06;100.00;97019.28;15295490;19;20423;-81
2022/12/14 08:50:15;;;;;;;10.40;8.00;;;;;;;-5.94;100.00;97042.06;15294240;19;20022;-82
2022/12/14 08:55:47;;;;;;;9.73;8.38;;;;;;;-5.83;100.00;97025.69;15297145;19;20043;-80
2022/12/14 09:01:15;;;;;;;9.10;8.13;;;;;;;-5.76;100.00;97010.44;15300969;19;20015;-82
2022/12/14 09:06:51;;;;;;;8.80;7.60;;;;;;;-5.64;100.00;97009.66;15326095;19;20025;-82
2022/12/14 09:12:16;;;;;;;8.57;7.68;;;;;;;-5.53;100.00;97000.28;15313159;19;20018;-83
2022/12/14 09:17:40;;;;;;;8.25;7.45;;;;;;;-5.40;100.00;96985.44;15308039;19;20031;-83
2022/12/14 09:23:08;;;;;;;8.52;7.40;;;;;;;-5.26;100.00;96985.41;15303879;19;20074;-83
2022/12/14 09:28:33;;;;;;;8.60;7.65;;;;;;;-5.18;100.00;96982.31;15315113;19;20025;-83
2022/12/14 09:33:58;;;;;;;8.52;7.20;;;;;;;-5.05;100.00;96968.34;15303850;19;20013;-83
2022/12/14 09:39:28;;;;;;;8.15;7.22;;;;;;;-4.92;100.00;96963.16;15333182;19;20027;-82
2022/12/14 09:45:02;;;;;;;8.32;7.43;;;;;;;-4.77;100.00;96964.78;15322079;19;20050;-84
2022/12/14 09:50:30;;;;;;;8.43;7.43;;;;;;;-4.63;100.00;96974.38;15318422;19;20010;-84
2022/12/14 09:55:59;;;;;;;8.35;7.40;;;;;;;-4.48;100.00;96972.50;15314123;19;20018;-84
2022/12/14 10:01:47;;;;;;;7.88;7.07;;;;;;;-4.35;100.00;96975.16;15318393;19;20423;-82
2022/12/14 10:07:41;;;;;;;8.20;7.38;;;;;;;-4.26;100.00;96971.03;15350812;19;20011;-82
2022/12/14 10:13:18;;;;;;;8.50;7.60;;;;;;;-4.17;100.00;96965.13;15325368;19;20028;-82
2022/12/14 10:18:59;;;;;;;8.48;7.57;;;;;;;-4.11;100.00;96948.94;15306494;19;20011;-80
2022/12/14 10:24:28;;;;;;;8.32;7.43;;;;;;;-3.97;100.00;96947.16;15301463;19;20073;-80
2022/12/14 10:30:00;;;;;;;9.93;7.38;;;;;;;-3.85;100.00;96938.41;15303328;19;20031;-81
2022/12/14 10:35:31;;;;;;;7.60;6.80;;;;;;;-3.70;100.00;96933.00;15309987;19;20015;-79
2022/12/14 10:41:05;;;;;;;8.05;7.22;;;;;;;-3.58;100.00;96908.41;15310963;19;20027;-80
2022/12/14 10:46:48;;;;;;;8.25;7.38;;;;;;;-3.45;100.00;96917.09;15313762;19;20027;-80
2022/12/14 10:52:17;;;;;;;7.75;6.78;;;;;;;-3.36;100.00;96907.72;15306304;19;20010;-81
2022/12/14 10:57:50;;;;;;;8.27;7.15;;;;;;;-3.26;100.00;96908.72;15312583;19;20018;-79
2022/12/14 11:03:18;;;;;;;8.77;7.40;;;;;;;-3.15;100.00;96909.72;15301008;19;20018;-81
2022/12/14 11:08:48;;;;;;;8.63;7.72;;;;;;;-3.09;100.00;96898.75;15310390;19;20051;-79
2022/12/14 11:14:19;;;;;;;9.05;7.82;;;;;;;-2.99;100.00;96899.75;15319154;19;20039;-80
2022/12/14 11:19:46;;;;;;;9.73;8.70;;;;;;;-2.95;100.00;96892.44;15306917;19;20015;-82
2022/12/14 11:25:30;;;;;;;9.30;7.75;;;;;;;-2.97;100.00;96897.84;15304766;19;20011;-78
2022/12/14 11:31:05;;;;;;;9.73;7.95;;;;;;;-2.92;100.00;96894.84;15302224;19;20014;-78
2022/12/14 11:36:36;;;;;;;8.07;7.28;;;;;;;-2.92;100.00;96880.81;15308741;19;20133;-79
2022/12/14 11:42:09;;;;;;;8.40;7.50;;;;;;;-2.86;100.00;96877.75;15302727;19;20608;-83
2022/12/14 11:47:34;;;;;;;8.63;7.57;;;;;;;-2.77;100.00;96876.22;15307005;19;20036;-78
2022/12/14 11:53:13;;;;;;;9.48;7.45;;;;;;;-2.71;100.00;96871.31;15300750;19;20033;-79
2022/12/14 11:58:41;;;;;;;7.88;7.13;;;;;;;-2.63;100.00;96862.78;15296462;19;20047;-78
2022/12/14 12:04:06;;;;;;;10.02;7.50;;;;;;;-2.57;100.00;96846.53;15294662;19;20488;-78
2022/12/14 12:09:33;;;;;;;8.35;7.47;;;;;;;-2.47;100.00;96849.31;15295225;19;20476;-79
2022/12/14 12:15:04;;;;;;;7.90;7.10;;;;;;;-2.35;100.00;96858.03;15295192;19;20504;-80
2022/12/14 12:20:35;;;;;;;10.35;8.52;;;;;;;-2.33;100.00;96858.78;15293547;19;20497;-82
2022/12/14 12:26:04;;;;;;;9.85;8.85;;;;;;;-2.35;100.00;96844.84;15299765;19;20813;-80
2022/12/14 12:31:34;;;;;;;10.00;9.00;;;;;;;-2.36;100.00;96832.63;15295364;19;20052;-79
2022/12/14 12:37:02;;;;;;;10.98;9.88;;;;;;;-2.38;100.00;96831.91;15299627;19;20132;-79
2022/12/14 12:42:51;;;;;;;11.13;9.82;;;;;;;-2.33;100.00;96837.66;15310142;19;20019;-80
2022/12/14 12:48:24;;;;;;;10.70;9.60;;;;;;;-2.29;100.00;96846.19;15317705;19;20018;-79
2022/12/14 12:53:54;;;;;;;10.75;9.32;;;;;;;-2.55;100.00;96827.94;15310873;19;20014;-79
2022/12/14 12:59:34;;;;;;;11.18;9.85;;;;;;;-2.53;100.00;96821.59;15311919;19;20024;-80
2022/12/14 13:05:03;;;;;;;10.70;9.60;;;;;;;-2.45;100.00;96822.81;15317275;19;20023;-81
2022/12/14 13:10:49;;;;;;;10.55;9.48;;;;;;;-2.42;100.00;96822.56;15307999;19;20070;-80
2022/12/14 13:16:40;;;;;;;10.68;9.45;;;;;;;-2.44;100.00;96820.03;15337805;19;20018;-78
2022/12/14 13:22:06;;;;;;;12.30;9.73;;;;;;;-2.46;100.00;96821.94;15333418;19;20035;-79
2022/12/14 13:27:51;;;;;;;10.82;9.73;;;;;;;-2.65;100.00;96819.94;15293719;19;20368;-79
2022/12/14 13:33:51;;;;;;;10.65;9.55;;;;;;;-2.74;100.00;96828.50;15295790;19;20081;-78
2022/12/14 13:39:41;;;;;;;12.38;10.48;;;;;;;-2.79;100.00;96829.72;15303662;19;20032;-78
2022/12/14 13:45:09;;;;;;;11.32;10.00;;;;;;;-2.73;100.00;96840.75;15302371;19;20081;-78
2022/12/14 13:50:39;;;;;;;10.55;9.52;;;;;;;-2.67;100.00;96850.84;15299160;19;20524;-77
2022/12/14 13:56:12;;;;;;;11.80;10.57;;;;;;;-2.67;100.00;96845.56;15301245;19;20014;-78
2022/12/14 14:01:58;;;;;;;10.95;9.80;;;;;;;-2.66;100.00;96847.25;15299249;19;20025;-79
2022/12/14 14:08:00;;;;;;;12.07;10.88;;;;;;;-2.67;100.00;96848.19;15300107;19;20006;-78
2022/12/14 14:14:03;;;;;;;12.40;11.10;;;;;;;-2.64;100.00;96845.31;15294987;19;20670;-78
2022/12/14 14:19:30;;;;;;;13.07;11.13;;;;;;;-2.64;100.00;96851.44;15302806;19;20089;-79
2022/12/14 14:25:01;;;;;;;12.50;11.20;;;;;;;-2.65;100.00;96841.84;15308624;19;20362;-77
2022/12/14 14:30:36;;;;;;;12.00;10.80;;;;;;;-2.65;100.00;96833.09;15307231;19;20019;-79
2022/12/14 14:36:11;;;;;;;12.90;11.43;;;;;;;-2.68;100.00;96820.97;15310376;19;20039;-79
2022/12/14 14:41:45;;;;;;;12.20;10.85;;;;;;;-2.71;100.00;96828.28;15299326;19;20540;-78
2022/12/14 14:47:25;;;;;;;13.70;12.18;;;;;;;-2.75;100.00;96824.19;15291534;19;20023;-77
2022/12/14 14:53:32;;;;;;;13.73;12.10;;;;;;;-2.81;100.00;96828.13;15299646;19;20090;-80
2022/12/14 14:59:33;;;;;;;13.55;12.15;;;;;;;-2.88;100.00;96835.66;15299846;19;20026;-80
2022/12/14 15:05:02;;;;;;;12.70;11.40;;;;;;;-2.94;100.00;96836.16;15298756;19;20074;-79
2022/12/14 15:10:50;;;;;;;13.98;11.98;;;;;;;-3.00;100.00;96844.53;15302123;19;20282;-81
2022/12/14 15:16:29;;;;;;;14.57;12.82;;;;;;;-3.12;100.00;96847.09;15305527;19;20444;-82
2022/12/14 15:22:00;;;;;;;14.27;12.52;;;;;;;-3.17;100.00;96846.63;15303766;19;20504;-80
2022/12/14 15:27:30;;;;;;;15.05;12.90;;;;;;;-3.22;100.00;96850.56;15301963;19;20031;-79
2022/12/14 15:33:01;;;;;;;15.55;13.07;;;;;;;-3.27;100.00;96854.38;15301385;19;20019;-80
2022/12/14 15:38:33;;;;;;;15.93;14.23;;;;;;;-3.33;100.00;96862.72;15305378;19;20011;-80
2022/12/14 15:43:59;;;;;;;17.52;13.90;;;;;;;-3.33;100.00;96880.31;15297372;19;20017;-80
2022/12/14 15:49:25;;;;;;;17.20;14.18;;;;;;;-3.34;100.00;96876.84;15292944;19;20330;-79
2022/12/14 15:54:51;;;;;;;16.92;14.85;;;;;;;-3.37;100.00;96871.78;15304416;19;20014;-81
2022/12/14 16:00:24;;;;;;;17.33;14.98;;;;;;;-3.44;100.00;96867.94;15296378;19;20525;-80
2022/12/14 16:05:50;;;;;;;17.63;15.77;;;;;;;-3.45;100.00;96867.09;15304545;19;20031;-80
2022/12/14 16:11:51;;;;;;;17.55;15.43;;;;;;;-3.52;100.00;96875.53;15317487;19;20010;-80
2022/12/14 16:17:22;;;;;;;17.88;14.82;;;;;;;-3.60;100.00;96878.75;15334711;19;20010;-80
2022/12/14 16:22:49;;;;;;;18.58;15.13;;;;;;;-3.63;100.00;96863.19;15335544;19;20055;-80
2022/12/14 16:28:27;;;;;;;18.85;15.77;;;;;;;-3.63;100.00;96866.63;15353936;19;20035;-79
2022/12/14 16:33:52;;;;;;;19.27;16.25;;;;;;;-3.64;100.00;96870.22;15304490;19;20011;-79
2022/12/14 16:39:21;;;;;;;19.85;16.13;;;;;;;-3.67;100.00;96873.09;15304452;19;20018;-80
2022/12/14 16:44:48;;;;;;;17.27;14.90;;;;;;;-3.74;100.00;96877.09;15306128;19;20453;-79
2022/12/14 16:50:23;;;;;;;18.45;14.82;;;;;;;-3.78;100.00;96880.91;15308135;19;20014;-80
2022/12/14 16:56:10;;;;;;;21.98;15.20;;;;;;;-3.84;100.00;96892.72;15302763;19;20022;-79
2022/12/14 17:01:45;;;;;;;22.63;15.55;;;;;;;-3.89;100.00;96894.81;15310383;19;20035;-81
2022/12/14 17:07:11;;;;;;;18.92;15.82;;;;;;;-3.92;100.00;96908.19;15313086;19;20077;-81
2022/12/14 17:12:37;;;;;;;19.38;16.65;;;;;;;-3.89;100.00;96910.63;15302790;19;20090;-81
2022/12/14 17:18:07;;;;;;;20.65;17.30;;;;;;;-3.89;100.00;96916.72;15306921;19;20010;-80
2022/12/14 17:23:34;;;;;;;19.95;15.68;;;;;;;-3.87;100.00;96922.69;15295120;19;20010;-81
2022/12/14 17:29:00;;;;;;;21.33;16.40;;;;;;;-3.92;100.00;96921.34;15299081;19;20019;-81
2022/12/14 17:34:28;;;;;;;19.52;16.05;;;;;;;-3.94;100.00;96926.72;15298068;19;20686;-83
2022/12/14 17:39:53;;;;;;;18.73;15.65;;;;;;;-3.95;100.00;96924.22;15305336;19;20098;-81
2022/12/14 17:45:22;;;;;;;20.60;16.00;;;;;;;-3.96;100.00;96930.41;15309481;19;20087;-83
2022/12/14 17:50:54;;;;;;;18.42;16.40;;;;;;;-4.04;100.00;96930.94;15307929;19;20018;-82
2022/12/14 17:56:27;;;;;;;17.98;16.08;;;;;;;-4.09;100.00;96931.28;15298932;19;20018;-80
2022/12/14 18:01:52;;;;;;;22.48;17.33;;;;;;;-4.20;100.00;96928.56;15297295;19;20552;-80
2022/12/14 18:07:20;;;;;;;24.00;19.15;;;;;;;-4.30;100.00;96927.50;15305900;19;20050;-80
2022/12/14 18:12:47;;;;;;;24.52;18.50;;;;;;;-4.44;100.00;96937.19;15303862;19;20804;-81
2022/12/14 18:18:12;;;;;;;23.83;18.85;;;;;;;-4.53;100.00;96943.88;15307240;19;20099;-80
2022/12/14 18:23:40;;;;;;;23.17;17.63;;;;;;;-4.60;100.00;96931.25;15302758;19;20014;-81
2022/12/14 18:29:05;;;;;;;23.65;17.33;;;;;;;-4.65;100.00;96929.81;15301793;19;20006;-81
2022/12/14 18:34:31;;;;;;;22.00;17.23;;;;;;;-4.75;100.00;96947.09;15300232;19;20022;-82
2022/12/14 18:40:04;;;;;;;24.90;18.75;;;;;;;-4.79;100.00;96953.53;15304507;19;20063;-81
2022/12/14 18:45:31;;;;;;;22.73;17.42;;;;;;;-4.80;100.00;96957.91;15309321;19;20031;-82
2022/12/14 18:50:57;;;;;;;20.08;15.85;;;;;;;-4.84;100.00;96958.22;15305610;19;20022;-80
2022/12/14 18:56:28;;;;;;;21.70;17.73;;;;;;;-4.86;100.00;96962.75;15302966;19;20018;-81
2022/12/14 19:01:53;;;;;;;20.27;17.45;;;;;;;-4.89;100.00;96963.78;15300834;19;20039;-80
2022/12/14 19:07:18;;;;;;;17.98;15.18;;;;;;;-4.96;100.00;96967.78;15307239;19;20014;-84
2022/12/14 19:12:45;;;;;;;17.02;14.75;;;;;;;-5.05;100.00;96969.22;15307813;19;20006;-83
2022/12/14 19:18:11;;;;;;;18.95;15.90;;;;;;;-5.12;100.00;96978.44;15299653;19;20018;-84
2022/12/14 19:23:36;;;;;;;21.20;17.42;;;;;;;-5.18;100.00;96976.19;15307086;19;20528;-83
2022/12/14 19:29:05;;;;;;;20.48;15.65;;;;;;;-5.21;100.00;96973.75;15307804;19;20006;-83
2022/12/14 19:34:33;;;;;;;18.70;15.52;;;;;;;-5.31;100.00;96992.72;15334753;19;20023;-85
2022/12/14 19:40:01;;;;;;;20.42;16.23;;;;;;;-5.37;100.00;96980.00;15327683;19;20022;-83
2022/12/14 19:45:33;;;;;;;22.73;17.02;;;;;;;-5.44;100.00;96984.81;15304504;19;20705;-81
2022/12/14 19:50:58;;;;;;;19.67;16.13;;;;;;;-5.48;100.00;96983.31;15305810;19;20031;-82
2022/12/14 19:56:29;;;;;;;20.15;16.92;;;;;;;-5.55;100.00;96976.78;15304595;19;20020;-80
2022/12/14 20:01:57;;;;;;;21.33;17.25;;;;;;;-5.64;100.00;96977.31;15286375;19;20022;-81
2022/12/14 20:07:21;;;;;;;21.92;17.85;;;;;;;-5.75;100.00;96991.13;15303629;19;20039;-80
2022/12/14 20:12:46;;;;;;;23.42;18.50;;;;;;;-5.80;100.00;96999.28;15306084;19;20031;-81
2022/12/14 20:18:13;;;;;;;20.85;17.48;;;;;;;-5.89;100.00;96997.25;15306632;19;20457;-81
2022/12/14 20:23:39;;;;;;;24.00;18.85;;;;;;;-5.99;100.00;96983.84;15300195;19;20032;-83
2022/12/14 20:29:06;;;;;;;21.38;17.70;;;;;;;-6.22;100.00;96986.09;15315071;19;20494;-83
2022/12/14 20:34:37;;;;;;;24.50;19.02;;;;;;;-6.31;100.00;96999.78;15309381;19;20019;-81
2022/12/14 20:40:01;;;;;;;27.17;19.05;;;;;;;-6.35;100.00;97001.72;15316774;19;20010;-84
2022/12/14 20:45:32;;;;;;;27.80;21.02;;;;;;;-6.43;100.00;97011.81;15344330;19;20026;-81
2022/12/14 20:50:52;;;;;;;32.25;24.75;;;;;;;-6.51;100.00;97017.50;15329968;19;20015;-80
2022/12/14 20:56:17;;;;;;;32.90;25.58;;;;;;;-6.55;100.00;97020.38;15303908;19;20014;-81
2022/12/14 21:01:44;;;;;;;38.42;28.33;;;;;;;-6.56;100.00;97035.28;15319628;19;20047;-80
2022/12/14 21:07:16;;;;;;;38.38;27.17;;;;;;;-6.62;100.00;97048.72;15326505;19;20674;-80
2022/12/14 21:12:44;;;;;;;34.50;26.05;;;;;;;-6.69;100.00;97056.06;15311161;19;20010;-81
2022/12/14 21:18:09;;;;;;;36.97;27.00;;;;;;;-6.71;100.00;97050.09;15311756;19;20050;-81
2022/12/14 21:23:36;;;;;;;41.72;28.52;;;;;;;-6.76;100.00;97043.44;15313858;19;20064;-82
2022/12/14 21:29:01;;;;;;;41.95;29.63;;;;;;;-6.76;100.00;97056.53;15317419;19;20050;-80
2022/12/14 21:34:30;;;;;;;34.53;25.02;;;;;;;-6.85;100.00;97056.09;15308534;19;20094;-80
2022/12/14 21:39:58;;;;;;;32.30;23.95;;;;;;;-6.94;100.00;97056.63;15314360;19;20018;-81
2022/12/14 21:45:24;;;;;;;32.20;23.48;;;;;;;-7.00;100.00;97064.84;15309542;19;20232;-80
2022/12/14 21:50:49;;;;;;;50.55;24.20;;;;;;;-7.05;100.00;97078.16;15309050;19;20521;-81
2022/12/14 22:01:54;;;;;;;652.28;32.35;;;;;;;-7.28;100.00;97084.69;15301950;19;20021;-81
2022/12/14 22:07:18;;;;;;;732.03;41.55;;;;;;;-7.52;100.00;97081.59;15307043;19;20070;-81
2022/12/14 22:12:46;;;;;;;584.63;43.83;;;;;;;-7.58;100.00;97106.31;15310738;19;20082;-81
2022/12/14 22:18:11;;;;;;;67.97;36.67;;;;;;;-7.60;100.00;97106.41;10657357;19;10001974;-81
2022/12/14 22:23:36;;;;;;;74.25;38.88;;;;;;;-7.58;100.00;97116.78;15259181;19;20275;-80
2022/12/14 22:29:06;;;;;;;61.63;34.05;;;;;;;-7.62;100.00;97112.66;15348699;19;20311;-80
2022/12/14 22:34:31;;;;;;;65.30;36.38;;;;;;;-7.64;100.00;97117.09;15301058;19;20010;-80
2022/12/14 22:39:55;;;;;;;68.55;38.47;;;;;;;-7.71;100.00;97127.03;15306985;19;20014;-81
2022/12/14 22:45:23;;;;;;;62.22;35.70;;;;;;;-7.74;100.00;97128.06;15309090;19;20017;-80
2022/12/14 22:50:47;;;;;;;61.22;35.30;;;;;;;-7.78;100.00;97133.53;15305721;19;20014;-80
2022/12/14 22:56:16;;;;;;;62.30;36.80;;;;;;;-7.83;100.00;97144.22;15303936;19;20492;-80
2022/12/14 23:01:45;;;;;;;61.85;36.63;;;;;;;-7.87;100.00;97145.28;15307246;19;20019;-80
2022/12/14 23:07:10;;;;;;;61.55;36.17;;;;;;;-7.88;100.00;97143.59;15307141;19;20007;-80
